<?xml version="1.0" encoding="UTF-8" standalone="no" ?>
<gpx xmlns="http://www.topografix.com/GPX/1/1" xmlns:xsi="http://www.w3.org/2001/XMLSchema-instance" xsi:schemaLocation="http://www.topografix.com/GPX/1/1 http://www.topografix.com/GPX/1/1/gpx.xsd" version="1.1" creator="VisuGPX - https://www.visugpx.com">
  <metadata>
    <name>2015-01-04 Avolsheim</name>
    <desc><![CDATA[2015-01-04 Avolsheim organisé par Thierry]]></desc>
  </metadata>
  <trk>
    <name><![CDATA[OR-8038252--Dachstein:2015-01-04 Avolsheim]]></name>
    <trkseg>
      <trkpt lat="48.56476" lon="7.52916">
        <ele>163</ele>
        <time>2017-10-25T20:10:24Z</time>
      </trkpt>
      <trkpt lat="48.56422" lon="7.52727">
        <ele>164</ele>
        <time>2017-10-25T20:12:24Z</time>
      </trkpt>
      <trkpt lat="48.56425" lon="7.52478">
        <ele>163</ele>
        <time>2017-10-25T20:14:24Z</time>
      </trkpt>
      <trkpt lat="48.56454" lon="7.52233">
        <ele>163</ele>
        <time>2017-10-25T20:16:24Z</time>
      </trkpt>
      <trkpt lat="48.56465" lon="7.51972">
        <ele>165</ele>
        <time>2017-10-25T20:18:24Z</time>
      </trkpt>
      <trkpt lat="48.56471" lon="7.51628">
        <ele>162</ele>
        <time>2017-10-25T20:20:24Z</time>
      </trkpt>
      <trkpt lat="48.56485" lon="7.51461">
        <ele>163</ele>
        <time>2017-10-25T20:22:24Z</time>
      </trkpt>
      <trkpt lat="48.56309" lon="7.51452">
        <ele>164</ele>
        <time>2017-10-25T20:24:24Z</time>
      </trkpt>
      <trkpt lat="48.56042" lon="7.51341">
        <ele>165</ele>
        <time>2017-10-25T20:26:24Z</time>
      </trkpt>
      <trkpt lat="48.56079" lon="7.51156">
        <ele>167</ele>
        <time>2017-10-25T20:28:24Z</time>
      </trkpt>
      <trkpt lat="48.5613" lon="7.50924">
        <ele>171</ele>
        <time>2017-10-25T20:30:24Z</time>
      </trkpt>
      <trkpt lat="48.55971" lon="7.50757">
        <ele>168</ele>
        <time>2017-10-25T20:32:24Z</time>
      </trkpt>
      <trkpt lat="48.55905" lon="7.50667">
        <ele>168</ele>
        <time>2017-10-25T20:34:24Z</time>
      </trkpt>
      <trkpt lat="48.55795" lon="7.50512">
        <ele>167</ele>
        <time>2017-10-25T20:36:24Z</time>
      </trkpt>
      <trkpt lat="48.55741" lon="7.50431">
        <ele>169</ele>
        <time>2017-10-25T20:38:24Z</time>
      </trkpt>
      <trkpt lat="48.55675" lon="7.50392">
        <ele>170</ele>
        <time>2017-10-25T20:40:24Z</time>
      </trkpt>
      <trkpt lat="48.55656" lon="7.50444">
        <ele>168</ele>
        <time>2017-10-25T20:42:24Z</time>
      </trkpt>
      <trkpt lat="48.55638" lon="7.50517">
        <ele>167</ele>
        <time>2017-10-25T20:44:24Z</time>
      </trkpt>
      <trkpt lat="48.55656" lon="7.50403">
        <ele>169</ele>
        <time>2017-10-25T20:46:24Z</time>
      </trkpt>
      <trkpt lat="48.55718" lon="7.50418">
        <ele>169</ele>
        <time>2017-10-25T20:48:24Z</time>
      </trkpt>
      <trkpt lat="48.55786" lon="7.50418">
        <ele>168</ele>
        <time>2017-10-25T20:50:24Z</time>
      </trkpt>
      <trkpt lat="48.55846" lon="7.50405">
        <ele>168</ele>
        <time>2017-10-25T20:52:24Z</time>
      </trkpt>
      <trkpt lat="48.55976" lon="7.50384">
        <ele>168</ele>
        <time>2017-10-25T20:54:24Z</time>
      </trkpt>
      <trkpt lat="48.56057" lon="7.50356">
        <ele>170</ele>
        <time>2017-10-25T20:56:24Z</time>
      </trkpt>
      <trkpt lat="48.56096" lon="7.50315">
        <ele>170</ele>
        <time>2017-10-25T20:58:24Z</time>
      </trkpt>
      <trkpt lat="48.56153" lon="7.50259">
        <ele>170</ele>
        <time>2017-10-25T21:00:24Z</time>
      </trkpt>
      <trkpt lat="48.56185" lon="7.5018">
        <ele>170</ele>
        <time>2017-10-25T21:02:24Z</time>
      </trkpt>
      <trkpt lat="48.56195" lon="7.50137">
        <ele>170</ele>
        <time>2017-10-25T21:04:24Z</time>
      </trkpt>
      <trkpt lat="48.56211" lon="7.50103">
        <ele>170</ele>
        <time>2017-10-25T21:06:24Z</time>
      </trkpt>
      <trkpt lat="48.56207" lon="7.50012">
        <ele>171</ele>
        <time>2017-10-25T21:08:24Z</time>
      </trkpt>
      <trkpt lat="48.56256" lon="7.4994">
        <ele>170</ele>
        <time>2017-10-25T21:10:24Z</time>
      </trkpt>
      <trkpt lat="48.56313" lon="7.49918">
        <ele>170</ele>
        <time>2017-10-25T21:12:24Z</time>
      </trkpt>
      <trkpt lat="48.56378" lon="7.4994">
        <ele>170</ele>
        <time>2017-10-25T21:14:24Z</time>
      </trkpt>
      <trkpt lat="48.56455" lon="7.49952">
        <ele>170</ele>
        <time>2017-10-25T21:16:24Z</time>
      </trkpt>
      <trkpt lat="48.56525" lon="7.4998">
        <ele>169</ele>
        <time>2017-10-25T21:18:24Z</time>
      </trkpt>
      <trkpt lat="48.56583" lon="7.49982">
        <ele>168</ele>
        <time>2017-10-25T21:20:24Z</time>
      </trkpt>
      <trkpt lat="48.56614" lon="7.4995">
        <ele>169</ele>
        <time>2017-10-25T21:22:24Z</time>
      </trkpt>
      <trkpt lat="48.56668" lon="7.4997">
        <ele>170</ele>
        <time>2017-10-25T21:24:24Z</time>
      </trkpt>
      <trkpt lat="48.56675" lon="7.50043">
        <ele>170</ele>
        <time>2017-10-25T21:26:24Z</time>
      </trkpt>
      <trkpt lat="48.56692" lon="7.50126">
        <ele>170</ele>
        <time>2017-10-25T21:28:24Z</time>
      </trkpt>
      <trkpt lat="48.56725" lon="7.50186">
        <ele>170</ele>
        <time>2017-10-25T21:30:24Z</time>
      </trkpt>
      <trkpt lat="48.5675" lon="7.50274">
        <ele>167</ele>
        <time>2017-10-25T21:32:24Z</time>
      </trkpt>
      <trkpt lat="48.56762" lon="7.50356">
        <ele>167</ele>
        <time>2017-10-25T21:34:24Z</time>
      </trkpt>
      <trkpt lat="48.56772" lon="7.50439">
        <ele>168</ele>
        <time>2017-10-25T21:36:24Z</time>
      </trkpt>
      <trkpt lat="48.56765" lon="7.50512">
        <ele>169</ele>
        <time>2017-10-25T21:38:24Z</time>
      </trkpt>
      <trkpt lat="48.5676" lon="7.50613">
        <ele>169</ele>
        <time>2017-10-25T21:40:24Z</time>
      </trkpt>
      <trkpt lat="48.56789" lon="7.50663">
        <ele>170</ele>
        <time>2017-10-25T21:42:24Z</time>
      </trkpt>
      <trkpt lat="48.5681" lon="7.50703">
        <ele>171</ele>
        <time>2017-10-25T21:44:24Z</time>
      </trkpt>
      <trkpt lat="48.56841" lon="7.50669">
        <ele>172</ele>
        <time>2017-10-25T21:46:24Z</time>
      </trkpt>
      <trkpt lat="48.56907" lon="7.50648">
        <ele>174</ele>
        <time>2017-10-25T21:48:24Z</time>
      </trkpt>
      <trkpt lat="48.56952" lon="7.50682">
        <ele>174</ele>
        <time>2017-10-25T21:50:24Z</time>
      </trkpt>
      <trkpt lat="48.56976" lon="7.50645">
        <ele>174</ele>
        <time>2017-10-25T21:52:24Z</time>
      </trkpt>
      <trkpt lat="48.57059" lon="7.50628">
        <ele>175</ele>
        <time>2017-10-25T21:54:24Z</time>
      </trkpt>
      <trkpt lat="48.57142" lon="7.50581">
        <ele>181</ele>
        <time>2017-10-25T21:56:24Z</time>
      </trkpt>
      <trkpt lat="48.57186" lon="7.50551">
        <ele>185</ele>
        <time>2017-10-25T21:58:24Z</time>
      </trkpt>
      <trkpt lat="48.57223" lon="7.50493">
        <ele>186</ele>
        <time>2017-10-25T22:00:24Z</time>
      </trkpt>
      <trkpt lat="48.57277" lon="7.50545">
        <ele>197</ele>
        <time>2017-10-25T22:02:24Z</time>
      </trkpt>
      <trkpt lat="48.5729" lon="7.50575">
        <ele>203</ele>
        <time>2017-10-25T22:04:24Z</time>
      </trkpt>
      <trkpt lat="48.57272" lon="7.50624">
        <ele>203</ele>
        <time>2017-10-25T22:06:24Z</time>
      </trkpt>
      <trkpt lat="48.57256" lon="7.50684">
        <ele>204</ele>
        <time>2017-10-25T22:08:24Z</time>
      </trkpt>
      <trkpt lat="48.5725" lon="7.50725">
        <ele>205</ele>
        <time>2017-10-25T22:10:24Z</time>
      </trkpt>
      <trkpt lat="48.5726" lon="7.50766">
        <ele>209</ele>
        <time>2017-10-25T22:12:24Z</time>
      </trkpt>
      <trkpt lat="48.57314" lon="7.5077">
        <ele>221</ele>
        <time>2017-10-25T22:14:24Z</time>
      </trkpt>
      <trkpt lat="48.57368" lon="7.50759">
        <ele>228</ele>
        <time>2017-10-25T22:16:24Z</time>
      </trkpt>
      <trkpt lat="48.57367" lon="7.50836">
        <ele>228</ele>
        <time>2017-10-25T22:18:24Z</time>
      </trkpt>
      <trkpt lat="48.57411" lon="7.50811">
        <ele>232</ele>
        <time>2017-10-25T22:20:24Z</time>
      </trkpt>
      <trkpt lat="48.57413" lon="7.50751">
        <ele>232</ele>
        <time>2017-10-25T22:22:24Z</time>
      </trkpt>
      <trkpt lat="48.57416" lon="7.50791">
        <ele>232</ele>
        <time>2017-10-25T22:24:24Z</time>
      </trkpt>
      <trkpt lat="48.57365" lon="7.5086">
        <ele>226</ele>
        <time>2017-10-25T22:26:24Z</time>
      </trkpt>
      <trkpt lat="48.57385" lon="7.5095">
        <ele>223</ele>
        <time>2017-10-25T22:28:24Z</time>
      </trkpt>
      <trkpt lat="48.57406" lon="7.5107">
        <ele>217</ele>
        <time>2017-10-25T22:30:24Z</time>
      </trkpt>
      <trkpt lat="48.57328" lon="7.51118">
        <ele>211</ele>
        <time>2017-10-25T22:32:24Z</time>
      </trkpt>
      <trkpt lat="48.57307" lon="7.51188">
        <ele>207</ele>
        <time>2017-10-25T22:34:24Z</time>
      </trkpt>
      <trkpt lat="48.57202" lon="7.5133">
        <ele>197</ele>
        <time>2017-10-25T22:36:24Z</time>
      </trkpt>
      <trkpt lat="48.57131" lon="7.51416">
        <ele>189</ele>
        <time>2017-10-25T22:38:24Z</time>
      </trkpt>
      <trkpt lat="48.57056" lon="7.51437">
        <ele>182</ele>
        <time>2017-10-25T22:40:24Z</time>
      </trkpt>
      <trkpt lat="48.56985" lon="7.51482">
        <ele>175</ele>
        <time>2017-10-25T22:42:24Z</time>
      </trkpt>
      <trkpt lat="48.56929" lon="7.51491">
        <ele>172</ele>
        <time>2017-10-25T22:44:24Z</time>
      </trkpt>
      <trkpt lat="48.5689" lon="7.51502">
        <ele>170</ele>
        <time>2017-10-25T22:46:24Z</time>
      </trkpt>
      <trkpt lat="48.56865" lon="7.51446">
        <ele>170</ele>
        <time>2017-10-25T22:48:24Z</time>
      </trkpt>
      <trkpt lat="48.56776" lon="7.5142">
        <ele>166</ele>
        <time>2017-10-25T22:50:24Z</time>
      </trkpt>
      <trkpt lat="48.56675" lon="7.51429">
        <ele>166</ele>
        <time>2017-10-25T22:52:24Z</time>
      </trkpt>
      <trkpt lat="48.56593" lon="7.51422">
        <ele>166</ele>
        <time>2017-10-25T22:54:24Z</time>
      </trkpt>
      <trkpt lat="48.56589" lon="7.5145">
        <ele>165</ele>
        <time>2017-10-25T22:56:24Z</time>
      </trkpt>
      <trkpt lat="48.56478" lon="7.51446">
        <ele>162</ele>
        <time>2017-10-25T22:58:24Z</time>
      </trkpt>
      <trkpt lat="48.56456" lon="7.52167">
        <ele>164</ele>
        <time>2017-10-25T23:00:24Z</time>
      </trkpt>
      <trkpt lat="48.56418" lon="7.52544">
        <ele>163</ele>
        <time>2017-10-25T23:02:24Z</time>
      </trkpt>
      <trkpt lat="48.5641" lon="7.5269">
        <ele>164</ele>
        <time>2017-10-25T23:04:24Z</time>
      </trkpt>
      <trkpt lat="48.56466" lon="7.52914">
        <ele>163</ele>
        <time>2017-10-25T23:06:24Z</time>
      </trkpt>
    </trkseg>
  </trk>
</gpx>